EDMO 210150Z AUTO VRB02KT 9999 // OVC043/// 09/08 Q1023 EDMO 210120Z AUTO VRB01KT 9999 // OVC044/// 08/08 Q1023 EDMO 210050Z AUTO 16004KT 9999 // OVC045/// 08/08 Q1023 EDMO 210020Z AUTO 16001KT 1600 // SCT047/// 08/07 Q1023 EDMO 202350Z AUTO 00000KT 0600 R22/P2000N // NCD 07/07 Q1023 EDMO 202320Z AUTO 06002KT 3900 // NCD 08/08 Q1023 EDMO 202250Z AUTO VRB01KT 9999 // BKN047/// 09/09 Q1023 EDMO 202220Z AUTO VRB02KT 9999 // OVC047/// 10/09 Q1023 EDMO 202150Z AUTO 03003KT 9999 // BKN041/// 10/09 Q1023 EDMO 202120Z AUTO VRB02KT 9999 // OVC038/// 09/09 Q1023 EDMO 202050Z AUTO 00000KT 9999 // BKN038/// 09/09 Q1023 EDMO 202020Z AUTO 08001KT 9999 // BKN036/// 10/08 Q1022 EDMO 201950Z AUTO 08001KT 9999 // BKN036/// OVC047/// 10/09 Q1022 EDMO 201920Z AUTO 00000KT 9999 // SCT029/// BKN035/// 10/09 Q1022 EDMO 201850Z AUTO 08002KT 9999 // NCD 09/08 Q1022 EDMO 201820Z AUTO 06003KT 030V100 9999 // FEW230/// 09/08 Q1021 EDMO 201750Z 04004KT CAVOK 11/08 Q1021 EDMO 201720Z 04004KT 9999 FEW029 12/08 Q1021 EDMO 201650Z 07004KT 9999 FEW029 13/08 Q1020 EDMO 201620Z 06004KT 9999 FEW029 14/09 Q1020 EDMO 201550Z 06005KT 030V090 9999 FEW029 SCT044 14/08 Q1020 EDMO 201520Z 05005KT 9999 FEW032 SCT059 14/08 Q1020 EDMO 201450Z 02005KT 9999 FEW033 SCT056 14/08 Q1019 EDMO 201420Z 02005KT 9999 FEW031 BKN052 14/09 Q1019 EDMO 201350Z 05005KT 010V080 9999 FEW044 BKN053 14/09 Q1019 EDMO 201320Z 03005KT 360V060 9999 FEW022 BKN049 14/08 Q1019 EDMO 201250Z 04006KT 9999 BKN049 14/08 Q1019 EDMO 201220Z 03008KT 9999 SCT022 BKN027 14/09 Q1019 EDMO 201150Z 06006KT 9999 SCT022 BKN039 14/10 Q1019 EDMO 201120Z 12003KT 060V200 9999 FEW023 SCT036 14/09 Q1019 EDMO 201050Z 09004KT 030V120 9999 FEW016 SCT021 BKN037 13/08 Q1019 EDMO 201020Z VRB03KT 9999 SCT011 SCT017 14/10 Q1019 EDMO 200950Z VRB02KT 9999 SCT008 BKN012 BKN060 13/10 Q1019 EDMO 200920Z 09003KT 060V120 9999 BKN007 OVC051 11/10 Q1019 EDMO 200850Z 06003KT 020V090 9999 OVC006 11/10 Q1019 EDMO 200820Z 03004KT 8000 SCT005 BKN012 OVC043 11/10 Q1019 EDMO 200750Z 02005KT 5000 -DZ BR OVC003 10/10 Q1018 EDMO 200720Z 03005KT 2400 -DZ BR OVC003 10/10 Q1018 EDMO 200650Z 03005KT 2400 -DZ BR OVC002 10/10 Q1018 EDMO 200620Z 03003KT 2300 BR OVC003 10/10 Q1018 EDMO 200550Z 27003KT 3200 BR OVC004 11/10 Q1018 EDMO 200520Z 27003KT 5000 BR OVC004 11/10 Q1018 EDMO 200450Z 27004KT 4400 BR OVC003 10/10 Q1017 EDMO 200420Z AUTO 28004KT 5000 // OVC003/// 10/10 Q1017 EDMO 200350Z AUTO 27005KT 3600 // OVC003/// 10/10 Q1017 EDMO 200320Z AUTO 28005KT 3900 // OVC003/// 10/10 Q1017 EDMO 200250Z AUTO 27006KT 8000 // OVC004/// 10/10 Q1017 EDMO 200220Z AUTO 26006KT 8000 // OVC005/// 10/10 Q1017 EDMO 200150Z AUTO 25007KT 7000 // OVC008/// 11/10 Q1017 EDMO 200120Z AUTO 27005KT 9999 // FEW005/// BKN007/// OVC012/// 11/10 Q1017 EDMO 200050Z AUTO 25006KT 9999 // SCT006/// OVC033/// 11/10 Q1016 EDMO 200020Z AUTO 25007KT 9999 // FEW005/// OVC033/// 11/10 Q1016 EDMO 192350Z AUTO 26005KT 9999 // SCT004/// OVC034/// 11/10 Q1016 EDMO 192320Z AUTO 26006KT 9999 // FEW004/// SCT013/// OVC033/// 11/10 Q1016 EDMO 192250Z AUTO 26005KT 9999 // FEW011/// OVC025/// 11/10 Q1016 EDMO 192220Z AUTO 27005KT 9999 // FEW009/// OVC011/// 11/10 Q1016 EDMO 192150Z AUTO 27006KT 9999 // FEW007/// OVC013/// 11/10 Q1016 EDMO 192120Z AUTO 27006KT 9999 // BKN006/// OVC013/// 11/10 Q1016 EDMO 192050Z AUTO 26007KT 9999 // BKN006/// OVC012/// 11/10 Q1016 EDMO 192020Z AUTO 25009KT 9999 // BKN006/// OVC009/// 11/10 Q1016 EDMO 191950Z AUTO 25008KT 9999 // FEW007/// OVC014/// 11/10 Q1015 EDMO 191920Z AUTO 26007KT 9999 // FEW008/// OVC016/// 11/10 Q1015 EDMO 191850Z AUTO 26007KT 230V290 9999 // SCT008/// OVC017/// 11/10 Q1015 EDMO 191820Z AUTO 25010KT 9999 // FEW010/// BKN018/// OVC021/// 11/10 Q1015 EDMO 191750Z AUTO 25013KT 9999 // FEW010/// SCT018/// OVC021/// 12/10 Q1014 EDMO 191720Z AUTO 26014KT 9999 // BKN015/// OVC030/// 13/11 Q1014 EDMO 191650Z AUTO 29007KT 230V360 9999 // BKN034/// OVC051/// 14/11 Q1013 EDMO 191620Z AUTO 01006KT 9999 // SCT044/// BKN068/// 16/11 Q1013 EDMO 191550Z AUTO 33005KT 9999 // BKN054/// OVC064/// 16/11 Q1013 EDMO 191520Z AUTO 34006KT 9999 // SCT051/// OVC060/// 16/11 Q1013 EDMO 191450Z AUTO 02005KT 9999 // FEW031/// SCT050/// BKN060/// 17/10 Q1013 EDMO 191420Z AUTO 02006KT 9999 // FEW046/// BKN059/// BKN150/// 17/10 Q1013

METAR Messwerte

Zurück zur Übersicht

Ort
m ü. NN
Zeit Temperatur Taupunkt Rel.
Luftfeuchte
Luftdruck:
Altimeter
NN
Station
Wind in Beaufort
(Knoten)
Sichtweite
(Meter)
Wolken
(Meter über Grund)
Wettererscheinung
Oberpfaffenhofen
600
Di 21.09. 03:509893 %1023
1025
952
Uml 1 (2)>= 10000Bedeckt (1300) 
Oberpfaffenhofen
600
Di 21.09. 03:2088100 %1023
1025
952
Uml 1 (1)>= 10000Bedeckt (1300) 
Oberpfaffenhofen
600
Di 21.09. 02:5088100 %1023
1025
952
SSO 2 (4)>= 10000Bedeckt (1400) 
Oberpfaffenhofen
600
Di 21.09. 02:208793 %1023
1025
952
SSO 1 (1)1600Wolkig (1400) 
Oberpfaffenhofen
600
Di 21.09. 01:5077100 %1023
1025
952
Windstill600  
Oberpfaffenhofen
600
Di 21.09. 01:2088100 %1023
1025
952
ONO 1 (2)3900  
Oberpfaffenhofen
600
Di 21.09. 00:5099100 %1023
1025
952
Uml 1 (1)>= 10000Stark bewölkt (1400) 
Oberpfaffenhofen
600
Di 21.09. 00:2010993 %1023
1024
952
Uml 1 (2)>= 10000Bedeckt (1400) 
Oberpfaffenhofen
600
Mo 20.09. 23:5010993 %1023
1024
952
NNO 2 (3)>= 10000Stark bewölkt (1200) 
Oberpfaffenhofen
600
Mo 20.09. 23:2099100 %1023
1025
952
Uml 1 (2)>= 10000Bedeckt (1200) 
Oberpfaffenhofen
600
Mo 20.09. 22:5099100 %1023
1025
952
Windstill>= 10000Stark bewölkt (1200) 
Oberpfaffenhofen
600
Mo 20.09. 22:2010887 %1022
1023
951
O 1 (1)>= 10000Stark bewölkt (1100) 
Oberpfaffenhofen
600
Mo 20.09. 21:5010993 %1022
1023
951
O 1 (1)>= 10000Bedeckt (1400)
Stark bewölkt (1100)
 
Oberpfaffenhofen
600
Mo 20.09. 21:2010993 %1022
1023
951
Windstill>= 10000Stark bewölkt (1100)
Wolkig (880)
 
Oberpfaffenhofen
600
Mo 20.09. 20:509893 %1022
1024
951
O 1 (2)>= 10000  
Oberpfaffenhofen
600
Mo 20.09. 20:209893 %1021
1023
951
ONO 2 (3)
NNO - O
>= 10000Leicht bewölkt (7000) 
Oberpfaffenhofen
600
Mo 20.09. 19:5011882 %1021
1022
951
NO 2 (4)>= 10000Nicht signifikant 
Oberpfaffenhofen
600
Mo 20.09. 19:2012876 %1021
1022
951
NO 2 (4)>= 10000Leicht bewölkt (880) 
Oberpfaffenhofen
600
Mo 20.09. 18:5013872 %1020
1021
950
ONO 2 (4)>= 10000Leicht bewölkt (880) 
Oberpfaffenhofen
600
Mo 20.09. 18:2014972 %1020
1020
950
ONO 2 (4)>= 10000Leicht bewölkt (880) 
Oberpfaffenhofen
600
Mo 20.09. 17:5014867 %1020
1020
950
ONO 2 (5)
NNO - O
>= 10000Wolkig (1300)
Leicht bewölkt (880)
 
Oberpfaffenhofen
600
Mo 20.09. 17:2014867 %1020
1020
950
NO 2 (5)>= 10000Wolkig (1800)
Leicht bewölkt (980)
 
Oberpfaffenhofen
600
Mo 20.09. 16:5014867 %1019
1019
949
NNO 2 (5)>= 10000Wolkig (1700)
Leicht bewölkt (1000)
 
Oberpfaffenhofen
600
Mo 20.09. 16:2014972 %1019
1019
949
NNO 2 (5)>= 10000Stark bewölkt (1600)
Leicht bewölkt (940)
 
Oberpfaffenhofen
600
Mo 20.09. 15:5014972 %1019
1019
949
NO 2 (5)
N - O
>= 10000Stark bewölkt (1600)
Leicht bewölkt (1300)
 
Oberpfaffenhofen
600
Mo 20.09. 15:2014867 %1019
1019
949
NNO 2 (5)
N - ONO
>= 10000Stark bewölkt (1500)
Leicht bewölkt (670)
 
Oberpfaffenhofen
600
Mo 20.09. 14:5014867 %1019
1019
949
NO 2 (6)>= 10000Stark bewölkt (1500) 
Oberpfaffenhofen
600
Mo 20.09. 14:2014972 %1019
1019
949
NNO 3 (8)>= 10000Stark bewölkt (820)
Wolkig (670)
 
Oberpfaffenhofen
600
Mo 20.09. 13:50141077 %1019
1019
949
ONO 2 (6)>= 10000Stark bewölkt (1200)
Wolkig (670)
 
Oberpfaffenhofen
600
Mo 20.09. 13:2014972 %1019
1019
949
OSO 2 (3)
ONO - SSW
>= 10000Wolkig (1100)
Leicht bewölkt (700)
 
Oberpfaffenhofen
600
Mo 20.09. 12:5013872 %1019
1020
949
O 2 (4)
NNO - OSO
>= 10000Stark bewölkt (1100)
Wolkig (640)
Leicht bewölkt (490)
 
Oberpfaffenhofen
600
Mo 20.09. 12:20141077 %1019
1019
949
Uml 2 (3)>= 10000Wolkig (520)
Wolkig (340)
 
Oberpfaffenhofen
600
Mo 20.09. 11:50131082 %1019
1020
949
Uml 1 (2)>= 10000Stark bewölkt (1800)
Stark bewölkt (370)
Wolkig (240)
 
Oberpfaffenhofen
600
Mo 20.09. 11:20111094 %1019
1020
949
O 2 (3)
ONO - OSO
>= 10000Bedeckt (1600)
Stark bewölkt (210)
 
Oberpfaffenhofen
600
Mo 20.09. 10:50111094 %1019
1020
949
ONO 2 (3)
NNO - O
>= 10000Bedeckt (180) 
Oberpfaffenhofen
600
Mo 20.09. 10:20111094 %1019
1020
949
NNO 2 (4)8000Bedeckt (1300)
Stark bewölkt (370)
Wolkig (150)
 
Oberpfaffenhofen
600
Mo 20.09. 09:501010100 %1018
1019
948
NNO 2 (5)5000Bedeckt (91)Nieselregen (schwach)
Nebeldunst
Oberpfaffenhofen
600
Mo 20.09. 09:201010100 %1018
1019
948
NNO 2 (5)2400Bedeckt (91)Nieselregen (schwach)
Nebeldunst
Oberpfaffenhofen
600
Mo 20.09. 08:501010100 %1018
1019
948
NNO 2 (5)2400Bedeckt (61)Nieselregen (schwach)
Nebeldunst
Oberpfaffenhofen
600
Mo 20.09. 08:201010100 %1018
1019
948
NNO 2 (3)2300Bedeckt (91)Nebeldunst
Oberpfaffenhofen
600
Mo 20.09. 07:50111094 %1018
1019
948
W 2 (3)3200Bedeckt (120)Nebeldunst
Oberpfaffenhofen
600
Mo 20.09. 07:20111094 %1018
1019
948
W 2 (3)5000Bedeckt (120)Nebeldunst
Oberpfaffenhofen
600
Mo 20.09. 06:501010100 %1017
1018
947
W 2 (4)4400Bedeckt (91)Nebeldunst
Oberpfaffenhofen
600
Mo 20.09. 06:201010100 %1017
1018
947
W 2 (4)5000Bedeckt (91) 
Oberpfaffenhofen
600
Mo 20.09. 05:501010100 %1017
1018
947
W 2 (5)3600Bedeckt (91) 
Oberpfaffenhofen
600
Mo 20.09. 05:201010100 %1017
1018
947
W 2 (5)3900Bedeckt (91) 
Oberpfaffenhofen
600
Mo 20.09. 04:501010100 %1017
1018
947
W 2 (6)8000Bedeckt (120) 
Oberpfaffenhofen
600
Mo 20.09. 04:201010100 %1017
1018
947
W 2 (6)8000Bedeckt (150) 
Oberpfaffenhofen
600
Mo 20.09. 03:50111094 %1017
1018
947
WSW 3 (7)7000Bedeckt (240) 
Oberpfaffenhofen
600
Mo 20.09. 03:20111094 %1017
1018
947
W 2 (5)>= 10000Bedeckt (370)
Stark bewölkt (210)
Leicht bewölkt (150)
 
Oberpfaffenhofen
600
Mo 20.09. 02:50111094 %1016
1017
946
WSW 2 (6)>= 10000Bedeckt (1000)
Wolkig (180)
 
Oberpfaffenhofen
600
Mo 20.09. 02:20111094 %1016
1017
946
WSW 3 (7)>= 10000Bedeckt (1000)
Leicht bewölkt (150)
 
Oberpfaffenhofen
600
Mo 20.09. 01:50111094 %1016
1017
946
W 2 (5)>= 10000Bedeckt (1000)
Wolkig (120)
 
Oberpfaffenhofen
600
Mo 20.09. 01:20111094 %1016
1017
946
W 2 (6)>= 10000Bedeckt (1000)
Wolkig (400)
Leicht bewölkt (120)
 
Oberpfaffenhofen
600
Mo 20.09. 00:50111094 %1016
1017
946
W 2 (5)>= 10000Bedeckt (760)
Leicht bewölkt (340)
 
Oberpfaffenhofen
600
Mo 20.09. 00:20111094 %1016
1017
946
W 2 (5)>= 10000Bedeckt (340)
Leicht bewölkt (270)
 
Oberpfaffenhofen
600
So 19.09. 23:50111094 %1016
1017
946
W 2 (6)>= 10000Bedeckt (400)
Leicht bewölkt (210)
 
Oberpfaffenhofen
600
So 19.09. 23:20111094 %1016
1017
946
W 2 (6)>= 10000Bedeckt (400)
Stark bewölkt (180)
 
Oberpfaffenhofen
600
So 19.09. 22:50111094 %1016
1017
946
W 3 (7)>= 10000Bedeckt (370)
Stark bewölkt (180)
 
Oberpfaffenhofen
600
So 19.09. 22:20111094 %1016
1017
946
WSW 3 (9)>= 10000Bedeckt (270)
Stark bewölkt (180)
 
Oberpfaffenhofen
600
So 19.09. 21:50111094 %1015
1016
945
WSW 3 (8)>= 10000Bedeckt (430)
Leicht bewölkt (210)
 
Oberpfaffenhofen
600
So 19.09. 21:20111094 %1015
1016
945
W 3 (7)>= 10000Bedeckt (490)
Leicht bewölkt (240)
 
Oberpfaffenhofen
600
So 19.09. 20:50111094 %1015
1016
945
W 3 (7)
SW - WNW
>= 10000Bedeckt (520)
Wolkig (240)
 
Oberpfaffenhofen
600
So 19.09. 20:20111094 %1015
1016
945
WSW 3 (10)>= 10000Bedeckt (640)
Stark bewölkt (550)
Leicht bewölkt (300)
 
Oberpfaffenhofen
600
So 19.09. 19:50121088 %1014
1015
944
WSW 4 (13)>= 10000Bedeckt (640)
Wolkig (550)
Leicht bewölkt (300)
 
Oberpfaffenhofen
600
So 19.09. 19:20131188 %1014
1015
944
W 4 (14)>= 10000Bedeckt (910)
Stark bewölkt (460)
 
Oberpfaffenhofen
600
So 19.09. 18:50141182 %1013
1013
943
WNW 3 (7)
SW - N
>= 10000Bedeckt (1600)
Stark bewölkt (1000)
 
Oberpfaffenhofen
600
So 19.09. 18:20161172 %1013
1013
943
N 2 (6)>= 10000Stark bewölkt (2100)
Wolkig (1300)
 
Oberpfaffenhofen
600
So 19.09. 17:50161172 %1013
1013
943
NNW 2 (5)>= 10000Bedeckt (2000)
Stark bewölkt (1600)
 
Oberpfaffenhofen
600
So 19.09. 17:20161172 %1013
1013
943
NNW 2 (6)>= 10000Bedeckt (1800)
Wolkig (1600)
 
Oberpfaffenhofen
600
So 19.09. 16:50171063 %1013
1012
943
NNO 2 (5)>= 10000Stark bewölkt (1800)
Wolkig (1500)
Leicht bewölkt (940)
 
Oberpfaffenhofen
600
So 19.09. 16:20171063 %1013
1012
943
NNO 2 (6)>= 10000Stark bewölkt (4600)
Stark bewölkt (1800)
Leicht bewölkt (1400)
 

Altimeter: Einstellung am Altimeter (Höhenmesser), die Höhe 0 muss auf diesen Luftdruckwert zeigen, damit das Gerät die Stationshöhe richtig anzeigt.

NN: Luftdruck reduziert auf "Normal Null", auf Meereshöhe, dieser von der Temperatur abhängige Wert wird bisweilen unkorrekt einfach als "Luftdruck" bezeichnet. Eigentlich nur eine fiktive Größe, die es erlaubt, Stationen auf unterschiedlichen Höhen miteinander zu vergleichen.

Station: Realer Luftdruck an der Station.